createdAt,value
2019-02-28T00:02:22.484Z,5.90
2019-02-28T00:04:51.536Z,5.90
2019-02-28T00:07:21.871Z,5.97
2019-02-28T00:09:52.189Z,6.22
2019-02-28T00:12:22.548Z,7.15
2019-02-28T00:14:54.024Z,6.05
2019-02-28T00:17:24.370Z,6.20
2019-02-28T00:19:55.281Z,6.33
2019-02-28T00:22:26.692Z,6.55
2019-02-28T00:24:57.006Z,6.78
2019-02-28T00:27:27.380Z,5.92
2019-02-28T00:29:57.743Z,6.17
2019-02-28T00:32:28.102Z,5.85
2019-02-28T00:34:58.427Z,6.30
2019-02-28T00:37:28.894Z,6.30
2019-02-28T00:40:00.586Z,6.85
2019-02-28T00:42:32.099Z,6.28
2019-02-28T00:45:03.655Z,6.83
2019-02-28T00:47:34.251Z,6.50
2019-02-28T00:50:04.561Z,6.22
2019-02-28T00:52:35.391Z,7.62
2019-02-28T00:55:06.656Z,7.35
2019-02-28T00:57:37.044Z,7.03
2019-02-28T01:00:07.634Z,6.83
2019-02-28T01:02:38.048Z,6.95
2019-02-28T01:05:08.433Z,6.72
2019-02-28T01:07:38.822Z,6.72
2019-02-28T01:10:09.989Z,6.30
2019-02-28T01:12:40.354Z,6.47
2019-02-28T01:15:11.847Z,6.05
2019-02-28T01:17:42.232Z,5.97
2019-02-28T01:20:16.334Z,5.75
2019-02-28T01:22:45.734Z,5.85
2019-02-28T01:25:16.151Z,6.62
2019-02-28T01:27:46.488Z,6.97
2019-02-28T01:30:16.899Z,7.03
2019-02-28T01:32:50.164Z,6.17
2019-02-28T01:35:19.235Z,6.97
2019-02-28T01:37:52.356Z,6.75
2019-02-28T01:40:21.556Z,7.30
2019-02-28T01:42:54.822Z,5.45
2019-02-28T01:45:23.893Z,5.85
2019-02-28T01:47:54.291Z,6.10
2019-02-28T01:50:24.587Z,6.62
2019-02-28T01:52:54.967Z,6.65
2019-02-28T01:55:25.379Z,6.50
2019-02-28T01:57:55.686Z,5.45
2019-02-28T02:00:27.065Z,6.10
2019-02-28T02:02:57.378Z,6.25
2019-02-28T02:05:27.699Z,6.22
2019-02-28T02:07:58.035Z,5.33
2019-02-28T02:10:28.360Z,5.47
2019-02-28T02:12:58.725Z,5.40
2019-02-28T02:15:29.054Z,5.90
2019-02-28T02:17:59.447Z,5.70
2019-02-28T02:20:29.774Z,5.62
2019-02-28T02:23:00.110Z,5.28
2019-02-28T02:25:30.440Z,5.33
2019-02-28T02:28:03.977Z,5.30
2019-02-28T02:30:34.362Z,6.20
2019-02-28T02:33:04.713Z,5.45
2019-02-28T02:35:35.054Z,5.12
2019-02-28T02:38:05.408Z,4.97
2019-02-28T02:40:35.697Z,5.05
2019-02-28T02:43:06.052Z,5.22
2019-02-28T02:45:41.902Z,4.58
2019-02-28T02:48:08.384Z,5.12
2019-02-28T02:50:38.690Z,5.10
2019-02-28T02:53:09.052Z,4.90
2019-02-28T02:55:39.381Z,4.67
2019-02-28T02:58:09.790Z,4.58
2019-02-28T03:00:40.081Z,4.90
2019-02-28T03:03:10.474Z,4.60
2019-02-28T03:05:40.756Z,5.78
2019-02-28T03:08:11.121Z,4.55
2019-02-28T03:10:41.505Z,5.22
2019-02-28T03:13:11.864Z,4.60
2019-02-28T03:15:42.179Z,4.55
2019-02-28T03:18:12.550Z,4.62
2019-02-28T03:20:42.884Z,5.15
2019-02-28T03:23:13.249Z,5.25
2019-02-28T03:25:43.620Z,5.17
2019-02-28T03:28:14.166Z,4.85
2019-02-28T03:30:44.480Z,5.55
2019-02-28T03:33:24.187Z,5.62
2019-02-28T03:35:46.877Z,5.03
2019-02-28T03:38:17.277Z,5.67
2019-02-28T03:40:47.629Z,5.42
2019-02-28T03:43:18.110Z,5.75
2019-02-28T03:45:48.420Z,5.25
2019-02-28T03:48:18.818Z,5.25
2019-02-28T03:50:49.130Z,5.03
2019-02-28T03:53:20.958Z,6.30
2019-02-28T03:55:51.449Z,5.85
2019-02-28T03:58:21.846Z,5.15
2019-02-28T04:00:52.165Z,5.83
2019-02-28T04:03:22.560Z,5.55
2019-02-28T04:05:53.949Z,5.40
2019-02-28T04:08:29.407Z,5.95
2019-02-28T04:10:56.258Z,5.40
2019-02-28T04:13:26.583Z,5.45
2019-02-28T04:16:08.355Z,6.33
2019-02-28T04:18:28.916Z,6.42
2019-02-28T04:20:59.241Z,5.85
2019-02-28T04:23:35.652Z,5.37
2019-02-28T04:26:01.530Z,6.08
2019-02-28T04:28:31.908Z,6.00
2019-02-28T04:31:02.192Z,6.03
2019-02-28T04:33:37.656Z,5.65
2019-02-28T04:36:04.485Z,5.90
2019-02-28T04:38:34.906Z,6.05
2019-02-28T04:41:05.237Z,6.17
2019-02-28T04:43:35.616Z,6.37
2019-02-28T04:46:05.947Z,6.58
2019-02-28T04:48:36.364Z,6.05
2019-02-28T04:51:06.760Z,5.97
2019-02-28T04:53:37.165Z,6.35
2019-02-28T04:56:11.004Z,5.90
2019-02-28T04:58:39.830Z,6.17
2019-02-28T05:01:12.274Z,6.55
2019-02-28T05:03:42.141Z,6.53
2019-02-28T05:06:13.553Z,5.50
2019-02-28T05:08:43.914Z,5.72
2019-02-28T05:11:14.267Z,6.75
2019-02-28T05:13:48.390Z,6.10
2019-02-28T05:16:16.555Z,7.17
2019-02-28T05:18:46.880Z,7.20
2019-02-28T05:21:19.496Z,6.70
2019-02-28T05:23:49.254Z,6.30
2019-02-28T05:26:19.546Z,6.83
2019-02-28T05:28:49.971Z,6.67
2019-02-28T05:31:20.315Z,6.78
2019-02-28T05:33:50.644Z,6.67
2019-02-28T05:36:20.983Z,7.15
2019-02-28T05:38:55.988Z,7.00
2019-02-28T05:41:23.288Z,6.95
2019-02-28T05:43:53.640Z,7.00
2019-02-28T05:46:24.600Z,7.25
2019-02-28T05:48:56.272Z,7.08
2019-02-28T05:51:27.141Z,7.83
2019-02-28T05:53:57.556Z,7.28
2019-02-28T05:56:32.826Z,6.50
2019-02-28T05:58:59.997Z,7.00
2019-02-28T06:01:30.321Z,7.17
2019-02-28T06:04:03.301Z,7.70
2019-02-28T06:06:32.654Z,6.75
2019-02-28T06:09:04.842Z,7.58
2019-02-28T06:11:35.832Z,6.85
2019-02-28T06:14:06.231Z,8.05
2019-02-28T06:16:36.575Z,7.40
2019-02-28T06:19:08.290Z,7.15
2019-02-28T06:21:38.904Z,7.30
2019-02-28T06:24:09.247Z,7.00
2019-02-28T06:26:39.635Z,6.60
2019-02-28T06:29:09.988Z,7.00
2019-02-28T06:31:40.354Z,7.35
2019-02-28T06:34:10.799Z,7.78
2019-02-28T06:36:41.102Z,7.10
2019-02-28T06:39:11.516Z,7.17
2019-02-28T06:41:41.950Z,8.45
2019-02-28T06:44:12.347Z,8.13
2019-02-28T06:46:42.683Z,8.85
2019-02-28T06:49:13.091Z,8.28
2019-02-28T06:51:43.649Z,7.78
2019-02-28T06:54:14.018Z,7.08
2019-02-28T06:56:44.356Z,7.72
2019-02-28T06:59:14.724Z,8.15
2019-02-28T07:01:45.091Z,7.90
2019-02-28T07:04:15.454Z,8.10
2019-02-28T07:06:45.829Z,8.80
2019-02-28T07:09:16.268Z,8.13
2019-02-28T07:11:46.711Z,9.45
2019-02-28T07:14:17.073Z,9.03
2019-02-28T07:16:47.426Z,10.43
2019-02-28T07:19:17.787Z,10.08
2019-02-28T07:21:48.214Z,9.95
2019-02-28T07:24:18.656Z,12.18
2019-02-28T07:26:52.251Z,11.03
2019-02-28T07:29:21.183Z,11.45
2019-02-28T07:31:51.548Z,12.58
2019-02-28T07:34:23.796Z,11.50
2019-02-28T07:36:53.947Z,12.15
2019-02-28T07:39:24.348Z,11.03
2019-02-28T07:41:54.726Z,12.35
2019-02-28T07:44:25.131Z,13.20
2019-02-28T07:46:55.438Z,14.20
2019-02-28T07:49:26.109Z,12.82
2019-02-28T07:51:57.112Z,11.63
2019-02-28T07:54:28.351Z,13.18
2019-02-28T07:56:58.716Z,13.00
2019-02-28T07:59:29.104Z,13.98
2019-02-28T08:01:59.985Z,14.60
2019-02-28T08:04:31.453Z,13.95
2019-02-28T08:07:01.825Z,14.15
2019-02-28T08:09:33.159Z,13.45
2019-02-28T08:12:05.626Z,14.87
2019-02-28T08:14:35.981Z,14.30
2019-02-28T08:17:08.995Z,15.30
2019-02-28T08:19:38.746Z,16.10
2019-02-28T08:22:09.067Z,15.72
2019-02-28T08:24:39.505Z,15.78
2019-02-28T08:27:09.854Z,14.80
2019-02-28T08:29:44.798Z,16.35
2019-02-28T08:32:12.440Z,16.30
2019-02-28T08:34:42.953Z,17.73
2019-02-28T08:37:13.286Z,15.65
2019-02-28T08:39:43.664Z,14.93
2019-02-28T08:42:13.991Z,17.35
2019-02-28T08:44:44.428Z,16.85
2019-02-28T08:47:17.787Z,17.57
2019-02-28T08:49:46.823Z,17.17
2019-02-28T08:52:17.210Z,18.07
2019-02-28T08:54:47.655Z,17.52
2019-02-28T08:57:18.022Z,19.05
2019-02-28T08:59:52.448Z,18.27
2019-02-28T09:02:21.488Z,18.15
2019-02-28T09:04:51.838Z,18.27
2019-02-28T09:07:22.182Z,19.62
2019-02-28T09:09:52.608Z,18.75
2019-02-28T09:12:22.919Z,18.12
2019-02-28T09:14:55.243Z,18.52
2019-02-28T09:17:25.310Z,19.10
2019-02-28T09:19:55.699Z,19.57
2019-02-28T09:22:27.314Z,18.65
2019-02-28T09:24:58.064Z,21.02
2019-02-28T09:27:28.367Z,18.95
2019-02-28T09:29:58.751Z,20.12
2019-02-28T09:32:30.184Z,20.70
2019-02-28T09:35:02.508Z,20.77
2019-02-28T09:37:32.608Z,19.27
2019-02-28T09:40:02.978Z,20.50
2019-02-28T09:42:33.385Z,20.55
2019-02-28T09:45:07.632Z,19.57
2019-02-28T09:47:37.116Z,21.75
2019-02-28T09:50:09.186Z,20.43
2019-02-28T09:52:41.608Z,21.27
2019-02-28T09:55:11.904Z,21.05
2019-02-28T09:57:42.355Z,20.20
2019-02-28T10:00:17.420Z,20.50
2019-02-28T10:02:47.756Z,20.50
2019-02-28T10:05:18.175Z,18.82
2019-02-28T10:07:48.557Z,20.17
2019-02-28T10:10:21.060Z,20.52
2019-02-28T10:12:53.254Z,18.87
2019-02-28T10:15:23.655Z,21.30
2019-02-28T10:17:53.972Z,19.57
2019-02-28T10:20:27.064Z,21.65
2019-02-28T10:22:57.897Z,20.75
2019-02-28T10:25:29.362Z,20.85
2019-02-28T10:28:02.620Z,21.70
2019-02-28T10:30:32.668Z,23.87
2019-02-28T10:33:03.239Z,26.12
2019-02-28T10:35:36.636Z,24.32
2019-02-28T10:38:05.686Z,25.10
2019-02-28T10:40:36.126Z,23.00
2019-02-28T10:43:06.448Z,24.23
2019-02-28T10:45:41.155Z,24.00
2019-02-28T10:48:08.900Z,20.85
2019-02-28T10:50:39.280Z,23.20
2019-02-28T10:53:09.661Z,23.67
2019-02-28T10:55:40.110Z,24.25
2019-02-28T10:58:12.512Z,23.62
2019-02-28T11:00:44.275Z,23.83
2019-02-28T11:03:14.767Z,20.85
2019-02-28T11:05:45.657Z,21.52
2019-02-28T11:08:18.867Z,22.55
2019-02-28T11:10:48.627Z,22.48
2019-02-28T11:13:19.492Z,21.30
2019-02-28T11:15:50.056Z,23.75
2019-02-28T11:18:20.381Z,21.40
2019-02-28T11:20:50.740Z,21.02
2019-02-28T11:23:22.586Z,21.60
2019-02-28T11:25:53.087Z,22.25
2019-02-28T11:28:27.966Z,22.22
2019-02-28T11:30:55.353Z,22.65
2019-02-28T11:33:25.912Z,25.35
2019-02-28T11:35:59.012Z,22.20
2019-02-28T11:38:28.287Z,23.42
2019-02-28T11:40:58.696Z,21.90
2019-02-28T11:43:29.032Z,21.37
2019-02-28T11:46:00.634Z,21.75
2019-02-28T11:48:32.743Z,20.52
2019-02-28T11:51:03.171Z,21.12
2019-02-28T11:53:39.322Z,21.23
2019-02-28T11:56:05.766Z,21.68
2019-02-28T11:58:36.193Z,20.72
2019-02-28T12:01:09.989Z,20.57
2019-02-28T12:03:38.582Z,21.90
2019-02-28T12:06:08.992Z,21.12
2019-02-28T12:08:41.489Z,22.70
2019-02-28T12:11:11.312Z,21.17
2019-02-28T12:13:41.679Z,22.65
2019-02-28T12:16:12.092Z,22.32
2019-02-28T12:18:42.459Z,21.73
2019-02-28T12:21:12.866Z,23.20
2019-02-28T12:23:43.170Z,22.82
2019-02-28T12:26:14.334Z,23.45
2019-02-28T12:28:45.499Z,21.97
2019-02-28T12:31:15.899Z,21.33
2019-02-28T12:33:46.633Z,22.07
2019-02-28T12:36:17.006Z,21.25
2019-02-28T12:38:48.701Z,22.50
2019-02-28T12:41:21.593Z,23.47
2019-02-28T12:43:51.036Z,22.60
2019-02-28T12:46:21.389Z,21.55
2019-02-28T12:48:51.716Z,22.65
2019-02-28T12:51:22.148Z,23.62
2019-02-28T12:53:52.474Z,23.27
2019-02-28T12:56:23.785Z,22.42
2019-02-28T12:58:54.108Z,23.60
2019-02-28T13:01:24.496Z,22.82
2019-02-28T13:04:00.239Z,21.33
2019-02-28T13:06:26.828Z,22.70
2019-02-28T13:08:57.173Z,22.80
2019-02-28T13:11:28.014Z,22.75
2019-02-28T13:14:00.081Z,21.93
2019-02-28T13:16:30.280Z,22.82
2019-02-28T13:19:01.992Z,22.82
2019-02-28T13:21:32.360Z,22.70
2019-02-28T13:24:06.069Z,23.95
2019-02-28T13:26:35.766Z,23.98
2019-02-28T13:29:06.399Z,23.45
2019-02-28T13:31:36.762Z,24.60
2019-02-28T13:34:07.082Z,23.95
2019-02-28T13:36:37.464Z,24.57
2019-02-28T13:39:10.080Z,25.88
2019-02-28T13:41:40.434Z,24.52
2019-02-28T13:44:10.761Z,24.27
2019-02-28T13:46:41.191Z,24.72
2019-02-28T13:49:12.770Z,24.12
2019-02-28T13:51:43.638Z,20.55
2019-02-28T13:54:14.204Z,24.57
2019-02-28T13:56:44.552Z,25.82
2019-02-28T13:59:14.890Z,25.60
2019-02-28T14:01:45.259Z,23.90
2019-02-28T14:04:18.718Z,23.87
2019-02-28T14:06:47.611Z,26.55
2019-02-28T14:09:18.945Z,25.12
2019-02-28T14:11:51.801Z,24.85
2019-02-28T14:14:22.331Z,24.47
2019-02-28T14:16:52.776Z,24.10
2019-02-28T14:19:23.176Z,24.63
2019-02-28T14:21:53.521Z,24.75
2019-02-28T14:24:23.843Z,23.57
2019-02-28T14:26:54.227Z,24.35
2019-02-28T14:29:24.619Z,24.72
2019-02-28T14:31:55.073Z,25.12
2019-02-28T14:34:27.253Z,23.35
2019-02-28T14:36:57.611Z,24.25
2019-02-28T14:39:27.948Z,23.85
2019-02-28T14:41:58.319Z,23.25
2019-02-28T14:44:31.567Z,25.50
2019-02-28T14:47:00.626Z,24.05
2019-02-28T14:49:31.087Z,23.20
2019-02-28T14:52:03.650Z,24.02
2019-02-28T14:54:34.448Z,23.65
2019-02-28T14:57:04.792Z,25.12
2019-02-28T14:59:35.194Z,24.72
2019-02-28T15:02:05.534Z,24.18
2019-02-28T15:04:35.952Z,24.65
2019-02-28T15:07:06.250Z,25.17
2019-02-28T15:09:36.679Z,25.32
2019-02-28T15:12:07.004Z,23.57
2019-02-28T15:14:37.324Z,25.15
2019-02-28T15:17:07.726Z,26.57
2019-02-28T15:19:38.086Z,25.97
2019-02-28T15:22:08.509Z,27.07
2019-02-28T15:24:40.555Z,26.30
2019-02-28T15:27:11.917Z,26.05
2019-02-28T15:29:42.380Z,25.75
2019-02-28T15:32:14.188Z,26.65
2019-02-28T15:34:44.771Z,26.80
2019-02-28T15:37:15.113Z,27.13
2019-02-28T15:39:45.484Z,28.80
2019-02-28T15:42:15.974Z,27.37
2019-02-28T15:44:46.359Z,28.25
2019-02-28T15:47:19.392Z,28.85
2019-02-28T15:49:49.184Z,27.70
2019-02-28T15:52:19.497Z,28.23
2019-02-28T15:54:49.912Z,28.92
2019-02-28T15:57:20.270Z,28.25
2019-02-28T15:59:50.657Z,29.50
2019-02-28T16:02:20.970Z,29.20
2019-02-28T16:04:51.347Z,29.82
2019-02-28T16:07:21.715Z,28.80
2019-02-28T16:09:54.101Z,27.42
2019-02-28T16:12:24.171Z,28.07
2019-02-28T16:14:54.621Z,29.65
2019-02-28T16:17:24.995Z,30.60
2019-02-28T16:19:56.232Z,28.20
2019-02-28T16:22:27.279Z,31.65
2019-02-28T16:24:57.647Z,29.48
2019-02-28T16:27:29.502Z,29.80
2019-02-28T16:30:02.356Z,29.07
2019-02-28T16:32:34.256Z,30.55
2019-02-28T16:35:04.833Z,29.67
2019-02-28T16:37:35.808Z,30.08
2019-02-28T16:40:08.136Z,31.68
2019-02-28T16:42:38.529Z,30.60
2019-02-28T16:45:13.215Z,29.48
2019-02-28T16:47:43.536Z,28.80
2019-02-28T16:50:15.317Z,30.80
2019-02-28T16:52:45.945Z,30.12
2019-02-28T16:55:16.383Z,30.30
2019-02-28T16:57:47.044Z,30.27
2019-02-28T17:00:18.785Z,30.08
2019-02-28T17:02:49.104Z,28.55
2019-02-28T17:05:19.492Z,29.02
2019-02-28T17:07:50.855Z,30.00
2019-02-28T17:10:23.822Z,30.50
2019-02-28T17:13:11.860Z,29.00
2019-02-28T17:16:01.477Z,30.82
2019-02-28T17:18:29.273Z,30.02
2019-02-28T17:20:59.692Z,28.62
2019-02-28T17:23:30.016Z,28.55
2019-02-28T17:26:00.682Z,28.40
2019-02-28T17:29:06.185Z,29.90
2019-02-28T17:31:44.498Z,29.77
2019-02-28T17:34:23.880Z,29.10
2019-02-28T17:36:52.189Z,28.05
2019-02-28T17:39:22.528Z,29.80
2019-02-28T17:41:52.958Z,29.23
2019-02-28T17:44:57.855Z,29.95
2019-02-28T17:48:09.639Z,28.98
2019-02-28T17:51:14.997Z,27.73
2019-02-28T17:54:23.972Z,28.62
2019-02-28T17:57:34.482Z,28.80
2019-02-28T18:00:38.632Z,28.45
2019-02-28T18:03:32.806Z,26.20
2019-02-28T18:07:11.839Z,29.32
2019-02-28T18:10:26.078Z,27.45
2019-02-28T18:13:12.510Z,26.33
2019-02-28T18:16:23.392Z,32.98
2019-02-28T18:19:30.515Z,26.12
2019-02-28T18:22:27.183Z,25.23
2019-02-28T18:25:33.554Z,24.52
2019-02-28T18:28:30.720Z,23.90
2019-02-28T18:31:19.174Z,24.67
2019-02-28T18:34:01.272Z,23.85
2019-02-28T18:36:32.468Z,25.05
2019-02-28T18:39:03.406Z,24.02
2019-02-28T18:41:35.456Z,26.15
2019-02-28T18:44:07.669Z,23.75
2019-02-28T18:46:38.261Z,23.30
2019-02-28T18:49:08.835Z,24.67
2019-02-28T18:51:39.160Z,26.00
2019-02-28T18:54:10.292Z,25.62
2019-02-28T18:56:40.872Z,23.77
2019-02-28T18:59:12.459Z,25.05
2019-02-28T19:01:42.781Z,24.02
2019-02-28T19:04:13.161Z,23.05
2019-02-28T19:06:43.619Z,24.82
2019-02-28T19:09:20.653Z,24.60
2019-02-28T19:11:50.978Z,24.23
2019-02-28T19:14:21.411Z,23.62
2019-02-28T19:16:51.813Z,22.90
2019-02-28T19:19:22.233Z,24.27
2019-02-28T19:21:52.670Z,23.55
2019-02-28T19:24:23.079Z,23.20
2019-02-28T19:26:54.478Z,24.85
2019-02-28T19:29:24.853Z,24.15
2019-02-28T19:31:55.238Z,24.25
2019-02-28T19:34:25.723Z,23.75
2019-02-28T19:36:56.085Z,23.20
2019-02-28T19:39:26.480Z,24.20
2019-02-28T19:41:56.900Z,23.10
2019-02-28T19:44:27.335Z,24.35
2019-02-28T19:46:57.780Z,24.63
2019-02-28T19:49:28.139Z,25.45
2019-02-28T19:51:58.475Z,23.22
2019-02-28T19:54:28.846Z,23.32
2019-02-28T19:56:59.208Z,22.07
2019-02-28T19:59:29.611Z,23.10
2019-02-28T20:01:59.915Z,24.25
2019-02-28T20:04:30.295Z,24.05
2019-02-28T20:07:00.618Z,22.80
2019-02-28T20:09:31.092Z,23.90
2019-02-28T20:12:01.519Z,23.67
2019-02-28T20:14:32.049Z,25.85
2019-02-28T20:17:02.366Z,23.67
2019-02-28T20:19:33.817Z,24.63
2019-02-28T20:22:04.156Z,23.40
2019-02-28T20:24:34.523Z,24.55
2019-02-28T20:27:04.968Z,32.88
2019-02-28T20:29:35.412Z,26.10
2019-02-28T20:32:05.861Z,24.35
2019-02-28T20:34:36.312Z,24.50
2019-02-28T20:37:06.743Z,24.75
2019-02-28T20:39:37.219Z,24.10
2019-02-28T20:42:07.527Z,26.57
2019-02-28T20:44:37.977Z,25.20
2019-02-28T20:47:08.439Z,24.23
2019-02-28T20:49:38.834Z,25.30
2019-02-28T20:52:09.188Z,25.70
2019-02-28T20:54:39.577Z,25.32
2019-02-28T20:57:10.929Z,24.72
2019-02-28T20:59:42.719Z,24.77
2019-02-28T21:02:13.046Z,25.30
2019-02-28T21:04:43.541Z,26.57
2019-02-28T21:07:14.097Z,25.15
2019-02-28T21:09:45.100Z,24.92
2019-02-28T21:12:15.557Z,26.62
2019-02-28T21:14:57.688Z,26.10
2019-02-28T21:17:29.705Z,25.15
2019-02-28T21:20:19.317Z,25.57
2019-02-28T21:22:49.689Z,25.77
2019-02-28T21:25:20.111Z,27.02
2019-02-28T21:27:50.551Z,25.95
2019-02-28T21:30:22.123Z,27.20
2019-02-28T21:32:52.566Z,27.67
2019-02-28T21:35:23.504Z,25.72
2019-02-28T21:37:53.946Z,26.95
2019-02-28T21:40:43.562Z,27.95
2019-02-28T21:43:14.049Z,29.70
2019-02-28T21:45:44.557Z,26.30
2019-02-28T21:48:14.888Z,27.32
2019-02-28T21:50:45.384Z,28.23
2019-02-28T21:53:15.829Z,28.73
2019-02-28T21:55:46.443Z,27.93
2019-02-28T21:58:16.865Z,30.00
2019-02-28T22:00:47.285Z,29.80
2019-02-28T22:03:17.619Z,30.20
2019-02-28T22:05:48.035Z,28.38
2019-02-28T22:08:18.408Z,28.90
2019-02-28T22:10:48.759Z,29.75
2019-02-28T22:13:19.090Z,31.10
2019-02-28T22:15:49.462Z,28.35
2019-02-28T22:18:19.789Z,30.17
2019-02-28T22:20:50.170Z,30.40
2019-02-28T22:23:20.507Z,30.80
2019-02-28T22:25:50.959Z,29.82
2019-02-28T22:28:21.301Z,30.25
2019-02-28T22:31:10.623Z,29.75
2019-02-28T22:33:50.932Z,31.50
2019-02-28T22:36:25.436Z,28.23
2019-02-28T22:38:55.808Z,30.10
2019-02-28T22:41:26.171Z,29.77
2019-02-28T22:43:56.491Z,30.20
2019-02-28T22:46:26.842Z,32.17
2019-02-28T22:48:57.148Z,30.80
2019-02-28T22:51:27.547Z,31.15
2019-02-28T22:53:57.878Z,32.30
2019-02-28T22:56:28.212Z,32.95
2019-02-28T22:58:58.607Z,31.02
2019-02-28T23:01:29.271Z,30.88
2019-02-28T23:03:59.665Z,32.23
2019-02-28T23:06:30.012Z,30.95
2019-02-28T23:09:00.394Z,32.50
2019-02-28T23:11:32.403Z,31.65
2019-02-28T23:14:02.748Z,33.40
2019-02-28T23:16:33.078Z,32.28
2019-02-28T23:19:03.431Z,33.70
2019-02-28T23:21:33.785Z,33.60
2019-02-28T23:24:04.102Z,33.18
2019-02-28T23:27:02.814Z,32.58
2019-02-28T23:29:33.115Z,35.48
2019-02-28T23:32:31.112Z,35.98
2019-02-28T23:35:01.457Z,35.43
2019-02-28T23:37:31.787Z,34.75
2019-02-28T23:40:02.110Z,35.17
2019-02-28T23:42:33.540Z,35.13
2019-02-28T23:45:03.861Z,37.10
2019-02-28T23:47:34.274Z,35.92
2019-02-28T23:50:05.224Z,36.77
2019-02-28T23:52:35.555Z,38.88
2019-02-28T23:55:06.089Z,37.45
2019-02-28T23:57:36.446Z,36.83
